Time;durP1;ratioP1;P1;durP2;ratioP2;P2;SDS_P1;SDS_P2;PMS_P1;PMS_P2;Temp;Humidity;BMP_temperature;BMP_pressure;BME280_temperature;BME280_humidity;BME280_pressure;Samples;Min_cycle;Max_cycle;Signal;HPM_P1;HPM_P2
2021/10/24 00:01:39;;;;;;;18.32;7.15;;;;;;;13.16;43.43;100713.20;1751031;80;20841;-68
2021/10/24 00:04:06;;;;;;;11.93;5.65;;;;;;;13.28;43.19;100716.15;1750367;80;21143;-69
2021/10/24 00:06:33;;;;;;;12.70;7.10;;;;;;;13.33;43.03;100715.91;1738555;79;20947;-69
2021/10/24 00:08:59;;;;;;;15.58;6.60;;;;;;;13.48;42.75;100717.09;1749587;79;21499;-70
2021/10/24 00:11:27;;;;;;;11.38;6.12;;;;;;;13.76;42.31;100715.80;1750118;80;22475;-70
2021/10/24 00:13:54;;;;;;;11.88;6.53;;;;;;;13.56;42.44;100718.29;1741180;81;20983;-70
2021/10/24 00:16:21;;;;;;;10.98;5.58;;;;;;;13.54;42.51;100716.34;1750061;80;21232;-69
2021/10/24 00:18:48;;;;;;;13.90;5.92;;;;;;;13.41;42.70;100720.67;1748058;81;21065;-69
2021/10/24 00:21:15;;;;;;;11.28;5.22;;;;;;;13.24;43.13;100722.27;1750279;79;21058;-68
2021/10/24 00:23:42;;;;;;;12.60;6.55;;;;;;;13.11;43.42;100728.17;1739176;80;21370;-69
2021/10/24 00:26:09;;;;;;;11.18;6.03;;;;;;;13.26;43.29;100722.90;1748156;80;20881;-67
2021/10/24 00:28:35;;;;;;;10.85;5.83;;;;;;;13.32;43.14;100723.43;1750901;81;21140;-68
2021/10/24 00:31:02;;;;;;;11.83;6.47;;;;;;;13.54;42.85;100724.71;1748227;79;21529;-68
2021/10/24 00:33:30;;;;;;;13.22;5.47;;;;;;;13.17;43.41;100722.67;1750163;81;20986;-68
2021/10/24 00:35:57;;;;;;;11.53;6.10;;;;;;;13.00;43.72;100734.41;1750286;80;20951;-68
2021/10/24 00:38:24;;;;;;;10.32;6.10;;;;;;;13.17;43.76;100721.36;1750083;79;21553;-68
2021/10/24 00:40:51;;;;;;;11.43;6.47;;;;;;;13.30;43.36;100722.83;1739800;79;21160;-68
2021/10/24 00:43:18;;;;;;;12.78;5.75;;;;;;;13.46;43.15;100728.78;1749493;79;20888;-68
2021/10/24 00:45:45;;;;;;;10.48;6.35;;;;;;;13.33;43.36;100726.86;1749929;79;21168;-70
2021/10/24 00:48:11;;;;;;;13.68;6.70;;;;;;;13.13;43.67;100734.02;1734011;80;21052;-69
2021/10/24 00:50:38;;;;;;;10.78;5.92;;;;;;;12.87;44.15;100732.45;1764295;79;21054;-69
2021/10/24 00:53:05;;;;;;;14.75;6.62;;;;;;;12.91;44.35;100732.39;1702259;80;21128;-70
2021/10/24 00:55:33;;;;;;;9.70;6.10;;;;;;;13.05;44.28;100732.84;1758804;80;20925;-69
2021/10/24 00:58:01;;;;;;;12.68;6.22;;;;;;;13.07;44.25;100727.44;1761980;81;21494;-69
2021/10/24 01:00:27;;;;;;;16.17;7.80;;;;;;;13.18;44.10;100722.17;1762820;80;20948;-69
2021/10/24 01:02:54;;;;;;;18.15;8.80;;;;;;;13.25;43.78;100721.76;1762566;80;21022;-68
2021/10/24 01:05:20;;;;;;;17.87;9.23;;;;;;;13.04;43.85;100723.88;1753342;81;21146;-68
2021/10/24 01:07:48;;;;;;;17.85;9.60;;;;;;;12.83;43.90;100729.40;1738667;81;21020;-68
2021/10/24 01:10:18;;;;;;;20.97;10.08;;;;;;;12.59;44.06;100729.77;1754694;81;20968;-68
2021/10/24 01:12:48;;;;;;;18.35;10.20;;;;;;;12.44;44.07;100731.09;1737655;81;20932;-68
2021/10/24 01:15:16;;;;;;;20.97;10.68;;;;;;;12.30;44.08;100739.27;1739692;80;20988;-68
2021/10/24 01:17:43;;;;;;;15.50;9.98;;;;;;;12.19;44.19;100737.11;1715798;81;22086;-71
2021/10/24 01:20:16;;;;;;;17.60;9.45;;;;;;;12.30;43.89;100730.12;1740003;80;21149;-68
2021/10/24 01:22:43;;;;;;;17.55;8.78;;;;;;;12.13;44.19;100732.13;1736616;80;21098;-70
2021/10/24 01:25:09;;;;;;;16.25;8.73;;;;;;;12.02;44.46;100734.39;1732443;81;21040;-71
2021/10/24 01:27:37;;;;;;;14.93;8.55;;;;;;;11.87;44.63;100733.89;1738964;81;21090;-68
2021/10/24 01:30:05;;;;;;;19.05;8.98;;;;;;;11.87;44.91;100732.58;1739793;80;23184;-68
2021/10/24 01:32:33;;;;;;;15.95;8.43;;;;;;;11.75;45.33;100743.62;1740455;81;20945;-70
2021/10/24 01:35:00;;;;;;;16.87;8.15;;;;;;;11.92;45.18;100736.76;1739951;82;20960;-70
2021/10/24 01:37:36;;;;;;;15.63;8.55;;;;;;;11.80;45.31;100745.20;1734511;82;21494;-69
2021/10/24 01:40:07;;;;;;;20.08;9.55;;;;;;;11.89;45.34;100746.28;1733119;80;21065;-70
2021/10/24 01:42:37;;;;;;;18.12;9.45;;;;;;;12.03;45.35;100750.38;1736292;80;21104;-70
2021/10/24 01:45:10;;;;;;;15.18;9.23;;;;;;;12.01;45.57;100744.50;1739655;80;20944;-68
2021/10/24 01:47:38;;;;;;;20.65;9.53;;;;;;;11.90;45.85;100751.02;1731279;80;20973;-70
2021/10/24 01:50:06;;;;;;;21.10;10.15;;;;;;;11.83;45.79;100743.08;1723587;82;21371;-68
2021/10/24 01:52:32;;;;;;;17.48;10.60;;;;;;;11.74;45.81;100746.71;1740225;80;20990;-68
2021/10/24 01:54:59;;;;;;;21.57;9.95;;;;;;;11.64;45.96;100740.45;1711973;82;22128;-68
2021/10/24 01:57:25;;;;;;;18.25;10.38;;;;;;;11.59;46.11;100740.19;1736975;80;21576;-68
2021/10/24 01:59:52;;;;;;;18.23;9.20;;;;;;;11.54;46.12;100750.83;1717261;81;21098;-69
2021/10/24 02:02:20;;;;;;;15.60;8.55;;;;;;;11.43;46.33;100740.31;1734208;80;20944;-69
2021/10/24 02:04:52;;;;;;;16.67;9.20;;;;;;;11.52;46.50;100739.77;1686502;81;21035;-69
2021/10/24 02:07:20;;;;;;;15.78;9.70;;;;;;;11.20;47.27;100733.81;1746157;79;21133;-68
2021/10/24 02:09:47;;;;;;;16.23;8.70;;;;;;;11.35;47.25;100735.17;1756879;79;21455;-69
2021/10/24 02:12:14;;;;;;;19.35;10.00;;;;;;;11.32;47.34;100742.03;1758352;79;21500;-70
2021/10/24 02:14:42;;;;;;;20.08;10.25;;;;;;;11.28;47.27;100744.68;1756110;79;21348;-68
2021/10/24 02:17:10;;;;;;;18.02;9.73;;;;;;;11.29;47.08;100750.21;1757600;81;20856;-69
2021/10/24 02:19:36;;;;;;;17.73;9.58;;;;;;;11.26;46.77;100754.50;1758165;79;21126;-68
2021/10/24 02:22:03;;;;;;;15.65;9.20;;;;;;;11.32;46.39;100753.78;1758278;80;20920;-68
2021/10/24 02:24:32;;;;;;;17.40;9.83;;;;;;;11.31;46.39;100749.55;1746747;79;21520;-68
2021/10/24 02:26:59;;;;;;;20.10;10.78;;;;;;;11.31;46.18;100749.06;1758666;80;21556;-71
2021/10/24 02:29:27;;;;;;;18.20;9.23;;;;;;;10.89;46.88;100758.66;1758366;79;21470;-70
2021/10/24 02:31:55;;;;;;;14.80;8.65;;;;;;;11.01;46.69;100749.94;1746576;79;21147;-69
2021/10/24 02:34:40;;;;;;;20.00;10.85;;;;;;;10.81;46.92;100750.39;1754305;79;20888;-70
2021/10/24 02:37:08;;;;;;;19.45;10.58;;;;;;;10.80;47.02;100752.69;1756096;79;21532;-70
2021/10/24 02:39:36;;;;;;;20.37;9.73;;;;;;;10.76;47.06;100759.23;1757207;79;21477;-70
2021/10/24 02:42:05;;;;;;;16.87;9.00;;;;;;;10.71;47.10;100758.42;1749135;80;21035;-69
2021/10/24 02:44:33;;;;;;;17.92;9.18;;;;;;;11.00;46.42;100762.67;1758794;80;21186;-71
2021/10/24 02:47:00;;;;;;;16.67;9.58;;;;;;;11.28;45.80;100766.86;1747023;79;21595;-69
2021/10/24 02:49:27;;;;;;;21.40;10.23;;;;;;;11.01;46.41;100761.68;1747183;81;21141;-70
2021/10/24 02:51:55;;;;;;;17.10;8.48;;;;;;;10.96;46.48;100761.70;1767867;79;21011;-70
2021/10/24 02:54:23;;;;;;;14.23;8.30;;;;;;;10.91;46.79;100760.13;1770931;80;21606;-70
2021/10/24 02:56:50;;;;;;;19.98;10.43;;;;;;;11.16;46.24;100766.47;1771878;80;21125;-70
2021/10/24 02:59:18;;;;;;;22.52;10.55;;;;;;;11.14;46.24;100768.45;1774347;80;21050;-70
2021/10/24 03:01:46;;;;;;;23.07;11.70;;;;;;;10.93;46.69;100762.05;1780360;78;20985;-70
2021/10/24 03:04:13;;;;;;;22.55;12.25;;;;;;;10.71;47.23;100764.94;1784839;79;20968;-69
2021/10/24 03:06:42;;;;;;;19.20;10.93;;;;;;;10.70;47.48;100766.42;1778126;79;21059;-70
2021/10/24 03:09:08;;;;;;;19.12;10.48;;;;;;;10.52;47.89;100778.89;1788256;79;21140;-70
2021/10/24 03:11:35;;;;;;;27.80;11.90;;;;;;;10.39;48.46;100775.04;1737304;81;21043;-69
2021/10/24 03:14:02;;;;;;;25.62;11.97;;;;;;;10.26;49.08;100778.66;1724872;81;21577;-68
2021/10/24 03:16:29;;;;;;;20.55;10.10;;;;;;;10.35;49.48;100777.66;1729482;81;20925;-68
2021/10/24 03:18:55;;;;;;;19.42;9.08;;;;;;;10.52;49.22;100777.59;1717666;82;21005;-69
2021/10/24 03:21:23;;;;;;;16.00;9.53;;;;;;;10.77;49.13;100777.80;1731103;80;21103;-68
2021/10/24 03:23:53;;;;;;;18.57;9.70;;;;;;;10.82;49.11;100771.56;1715143;81;21487;-69
2021/10/24 03:26:19;;;;;;;22.15;11.45;;;;;;;10.71;49.24;100773.26;1723823;82;20937;-68
2021/10/24 03:28:46;;;;;;;19.27;11.12;;;;;;;10.61;49.39;100767.47;1688601;81;21094;-68
2021/10/24 03:31:14;;;;;;;18.35;9.40;;;;;;;10.68;49.38;100778.81;1729221;82;21013;-69
2021/10/24 03:33:40;;;;;;;17.85;9.43;;;;;;;10.88;48.71;100775.30;1729396;81;21096;-69
2021/10/24 03:36:08;;;;;;;19.32;10.58;;;;;;;10.85;48.71;100780.36;1726704;81;20924;-68
2021/10/24 03:38:35;;;;;;;14.55;8.25;;;;;;;10.67;48.96;100770.17;1700451;82;21079;-67
2021/10/24 03:41:01;;;;;;;16.37;8.93;;;;;;;10.55;49.38;100775.95;1716429;82;21491;-68
2021/10/24 03:43:29;;;;;;;21.27;9.10;;;;;;;10.48;49.83;100772.70;1729677;81;20961;-68
2021/10/24 03:45:55;;;;;;;17.48;9.48;;;;;;;10.68;49.23;100773.59;1719928;82;22047;-69
2021/10/24 03:48:22;;;;;;;18.85;10.00;;;;;;;10.91;48.75;100773.16;1709740;81;20969;-68
2021/10/24 03:50:50;;;;;;;19.12;9.95;;;;;;;11.21;47.80;100771.96;1731916;81;22232;-69
2021/10/24 03:53:17;;;;;;;21.17;11.12;;;;;;;11.07;47.66;100774.05;1728512;82;21158;-70
2021/10/24 03:55:46;;;;;;;26.73;14.13;;;;;;;11.28;47.35;100772.89;1727889;82;20968;-70
2021/10/24 03:58:14;;;;;;;42.48;17.92;;;;;;;11.27;47.15;100775.69;1728017;82;21412;-70
2021/10/24 04:00:43;;;;;;;35.83;18.55;;;;;;;11.25;47.15;100772.42;1726339;81;21581;-68
2021/10/24 04:03:10;;;;;;;34.38;16.65;;;;;;;11.25;47.02;100777.18;1723627;82;22477;-68
2021/10/24 04:05:39;;;;;;;31.15;15.20;;;;;;;11.34;46.76;100783.95;1720246;82;20885;-69
2021/10/24 04:08:06;;;;;;;28.57;13.55;;;;;;;11.29;46.67;100790.20;1714304;82;21491;-68
2021/10/24 04:10:33;;;;;;;32.70;13.20;;;;;;;11.25;46.66;100795.45;1725325;82;21768;-68
2021/10/24 04:13:00;;;;;;;26.17;12.30;;;;;;;11.17;46.76;100797.62;1724572;82;20981;-69
2021/10/24 04:15:27;;;;;;;22.02;12.70;;;;;;;11.15;46.67;100796.16;1721219;82;21103;-68
2021/10/24 04:17:54;;;;;;;25.27;12.55;;;;;;;11.16;46.34;100801.69;1724300;82;21069;-69
2021/10/24 04:20:22;;;;;;;25.97;13.18;;;;;;;11.19;46.21;100800.05;1721452;82;21510;-68
2021/10/24 04:22:50;;;;;;;23.85;13.50;;;;;;;11.30;46.11;100800.95;1718587;82;21206;-68
2021/10/24 04:25:17;;;;;;;31.42;15.65;;;;;;;11.24;46.29;100805.55;1716808;82;21448;-70
2021/10/24 04:27:44;;;;;;;27.20;13.50;;;;;;;11.26;46.45;100803.59;1708683;82;21052;-70
2021/10/24 04:30:13;;;;;;;29.35;13.18;;;;;;;11.15;46.85;100806.59;1723332;82;20993;-69
2021/10/24 04:32:41;;;;;;;26.40;12.90;;;;;;;11.24;47.15;100810.77;1722452;82;21049;-67
2021/10/24 04:35:10;;;;;;;25.65;12.80;;;;;;;11.36;47.13;100808.56;1711681;82;21170;-69
2021/10/24 04:37:36;;;;;;;23.18;11.70;;;;;;;11.59;47.25;100802.02;1727042;82;21483;-69
2021/10/24 04:40:05;;;;;;;22.48;10.98;;;;;;;11.89;47.17;100808.98;1715725;82;21064;-69
2021/10/24 04:42:35;;;;;;;;;;;;;;;12.04;47.10;100815.51;1713655;82;21476;-68
2021/10/24 04:45:04;;;;;;;18.87;9.83;;;;;;;12.29;47.01;100813.96;1724761;82;20530;-69
2021/10/24 04:47:31;;;;;;;15.48;8.70;;;;;;;12.45;47.37;100814.27;1716344;82;21165;-69
2021/10/24 04:49:58;;;;;;;16.27;8.25;;;;;;;12.61;47.86;100808.83;1718772;80;20877;-69
2021/10/24 04:52:25;;;;;;;21.25;12.63;;;;;;;13.17;47.55;100820.83;1712127;82;21056;-70
2021/10/24 04:54:52;;;;;;;19.37;11.60;;;;;;;13.64;47.17;100824.73;1723464;82;21069;-69
2021/10/24 04:57:18;;;;;;;26.85;14.33;;;;;;;13.98;46.46;100828.39;1724409;82;20993;-69
2021/10/24 04:59:45;;;;;;;29.45;15.35;;;;;;;14.14;46.17;100838.61;1724702;82;21620;-69
2021/10/24 05:02:11;;;;;;;27.73;16.70;;;;;;;14.30;45.58;100841.42;1722631;82;21037;-68
2021/10/24 05:04:38;;;;;;;24.37;13.85;;;;;;;14.53;44.81;100852.98;1723420;82;21013;-69
2021/10/24 05:07:05;;;;;;;29.12;14.60;;;;;;;14.69;44.23;100849.21;1712501;82;20997;-70
2021/10/24 05:09:32;;;;;;;23.73;13.98;;;;;;;14.81;43.66;100848.48;1692687;82;21064;-69
2021/10/24 05:11:59;;;;;;;19.55;11.97;;;;;;;15.04;43.38;100848.66;1722263;82;21134;-69
2021/10/24 05:14:26;;;;;;;22.60;12.88;;;;;;;15.28;43.21;100845.97;1722157;82;21488;-69
2021/10/24 05:16:53;;;;;;;25.23;15.03;;;;;;;15.50;42.66;100854.50;1738111;81;20983;-71
2021/10/24 05:19:20;;;;;;;24.45;15.30;;;;;;;15.63;42.51;100859.75;1722879;82;20985;-68
2021/10/24 05:21:47;;;;;;;22.35;13.50;;;;;;;16.05;41.86;100863.81;1721689;82;21486;-70
2021/10/24 05:24:14;;;;;;;22.60;13.35;;;;;;;16.26;41.45;100869.36;1712041;82;21079;-69
2021/10/24 05:26:41;;;;;;;21.30;12.33;;;;;;;16.66;40.78;100879.77;1722397;82;21482;-71
2021/10/24 05:29:08;;;;;;;24.60;14.58;;;;;;;17.01;40.05;100876.86;1725408;82;21699;-70
2021/10/24 05:31:35;;;;;;;18.03;12.03;;;;;;;17.07;39.21;100872.56;1723093;82;21590;-70
2021/10/24 05:34:12;;;;;;;17.43;10.90;;;;;;;17.18;38.92;100871.89;1725051;82;21400;-71
2021/10/24 05:36:40;;;;;;;16.27;9.53;;;;;;;17.58;38.38;100882.16;1712674;82;21807;-70
2021/10/24 05:39:07;;;;;;;17.37;9.67;;;;;;;18.02;37.81;100879.92;1725110;82;21814;-71
2021/10/24 05:41:34;;;;;;;14.57;9.40;;;;;;;18.47;36.63;100876.53;1724815;82;21370;-70
2021/10/24 05:44:03;;;;;;;14.43;9.33;;;;;;;18.96;35.88;100876.61;1723437;82;21297;-71
2021/10/24 05:46:30;;;;;;;17.97;10.73;;;;;;;20.67;34.57;100863.98;1721175;82;21344;-71
2021/10/24 05:48:59;;;;;;;16.97;9.70;;;;;;;20.67;34.57;100863.98;1698647;81;21458;-70
2021/10/24 05:51:26;;;;;;;13.57;9.00;;;;;;;21.62;33.61;100864.64;1717439;82;21704;-71
2021/10/24 05:53:55;;;;;;;14.33;8.90;;;;;;;22.31;32.32;100861.67;1710455;82;20941;-71
2021/10/24 05:56:24;;;;;;;15.33;8.30;;;;;;;22.99;31.05;100860.36;1710793;82;21060;-71
2021/10/24 05:58:51;;;;;;;12.80;8.73;;;;;;;23.58;29.90;100857.44;1724070;82;21032;-74
2021/10/24 06:01:22;;;;;;;;;;;;;;;24.14;28.94;100859.16;1724970;82;21148;-71
2021/10/24 06:04:08;;;;;;;14.03;7.53;;;;;;;24.50;27.91;100860.94;1733382;80;20162;-72
2021/10/24 06:06:53;;;;;;;14.30;7.33;;;;;;;24.64;27.69;100855.13;1726002;82;21013;-70
2021/10/24 06:09:28;;;;;;;12.30;7.23;;;;;;;24.54;27.20;100856.42;1735849;80;21013;-71
2021/10/24 06:11:58;;;;;;;11.10;8.07;;;;;;;24.66;26.88;100863.66;1733937;82;21046;-70
2021/10/24 06:14:22;;;;;;;11.33;8.40;;;;;;;24.44;26.71;100872.66;1736318;82;22381;-69
2021/10/24 06:16:49;;;;;;;13.93;9.13;;;;;;;24.34;26.79;100873.11;1732965;82;21489;-69
2021/10/24 06:19:15;;;;;;;14.43;8.73;;;;;;;24.31;26.65;100872.28;1730845;82;20996;-69
2021/10/24 06:21:42;;;;;;;13.90;10.00;;;;;;;24.07;26.66;100881.23;1737530;82;21114;-70
2021/10/24 06:24:09;;;;;;;14.93;9.80;;;;;;;23.76;26.83;100879.16;1724933;80;20879;-69
2021/10/24 06:26:36;;;;;;;18.43;12.67;;;;;;;23.04;27.33;100887.02;1734938;82;22223;-70
2021/10/24 06:29:03;;;;;;;17.23;11.90;;;;;;;22.47;27.81;100894.58;1708074;83;21477;-70
2021/10/24 06:31:32;;;;;;;18.27;12.00;;;;;;;21.98;28.26;100900.50;1733075;80;21095;-68
2021/10/24 06:34:17;;;;;;;21.87;11.83;;;;;;;21.63;28.92;100906.06;1732560;82;21054;-68
2021/10/24 06:36:54;;;;;;;16.23;11.10;;;;;;;21.32;29.51;100912.11;1722826;82;21666;-69
2021/10/24 06:39:25;;;;;;;17.98;11.93;;;;;;;21.27;29.92;100902.75;1733286;82;27338;-67
2021/10/24 06:41:52;;;;;;;17.27;10.77;;;;;;;21.36;29.79;100893.39;1764887;79;20971;-68
2021/10/24 06:44:20;;;;;;;22.97;12.63;;;;;;;21.42;29.73;100896.95;1766008;79;20972;-69
2021/10/24 06:47:05;;;;;;;20.87;13.33;;;;;;;21.27;29.91;100891.34;1750799;80;21628;-68
2021/10/24 06:49:50;;;;;;;21.43;13.30;;;;;;;21.24;30.09;100894.47;1760163;79;21071;-69
2021/10/24 06:52:36;;;;;;;22.80;14.17;;;;;;;21.17;30.21;100899.11;1771404;79;21102;-70
2021/10/24 06:55:23;;;;;;;22.63;13.57;;;;;;;21.10;30.29;100898.75;1720940;82;21106;-70
2021/10/24 06:58:00;;;;;;;21.80;13.07;;;;;;;21.01;30.46;100896.17;1723466;81;21119;-67
2021/10/24 07:00:45;;;;;;;18.77;11.60;;;;;;;21.03;30.28;100898.08;1732644;80;21505;-68
2021/10/24 07:03:30;;;;;;;16.23;11.60;;;;;;;21.13;30.32;100899.58;1783058;80;21075;-69
2021/10/24 07:05:59;;;;;;;19.47;11.30;;;;;;;21.05;30.44;100903.14;1771027;79;22338;-70
2021/10/24 07:08:28;;;;;;;21.23;11.63;;;;;;;21.23;30.14;100900.30;1775019;79;21659;-70
2021/10/24 07:10:56;;;;;;;18.23;9.03;;;;;;;21.12;30.15;100899.30;1771182;80;21676;-68
2021/10/24 07:13:24;;;;;;;18.93;10.23;;;;;;;21.13;30.09;100898.77;1787120;79;20979;-66
2021/10/24 07:15:53;;;;;;;25.67;14.17;;;;;;;21.04;30.32;100892.25;1783423;79;21643;-65
2021/10/24 07:18:20;;;;;;;30.67;20.17;;;;;;;21.16;30.62;100898.83;1782056;80;21726;-67
2021/10/24 07:20:46;;;;;;;32.63;19.30;;;;;;;21.10;30.82;100893.45;1788957;79;21659;-68
2021/10/24 07:23:13;;;;;;;33.00;19.47;;;;;;;21.08;30.91;100898.17;1762770;79;22185;-67
2021/10/24 07:25:47;;;;;;;31.47;17.57;;;;;;;21.09;30.95;100905.59;1745376;80;20961;-68
2021/10/24 07:28:14;;;;;;;42.40;26.67;;;;;;;21.18;30.83;100895.44;1773474;79;21747;-67
2021/10/24 07:30:42;;;;;;;33.30;21.37;;;;;;;21.07;30.96;100901.06;1777535;79;22131;-68
2021/10/24 07:33:09;;;;;;;34.23;22.53;;;;;;;21.07;30.96;100901.06;1778863;79;21193;-66
2021/10/24 07:35:54;;;;;;;30.60;17.20;;;;;;;20.96;30.94;100899.27;1771547;79;21651;-67
2021/10/24 07:38:22;;;;;;;29.30;18.33;;;;;;;20.85;31.17;100914.16;1780503;79;21758;-70
2021/10/24 07:40:49;;;;;;;28.37;16.77;;;;;;;20.85;31.17;100914.16;1761303;79;20980;-68
2021/10/24 07:43:21;;;;;;;40.83;25.40;;;;;;;20.70;30.60;100913.84;1784251;79;21787;-67
2021/10/24 07:45:50;;;;;;;40.33;22.40;;;;;;;20.70;30.60;100913.84;1758999;80;21122;-68
2021/10/24 07:48:18;;;;;;;39.63;24.43;;;;;;;20.52;31.13;100915.59;1749169;81;22081;-66
2021/10/24 07:50:45;;;;;;;38.70;22.50;;;;;;;20.49;31.17;100912.58;1774551;80;22150;-69
2021/10/24 07:53:13;;;;;;;35.43;21.53;;;;;;;20.59;31.31;100909.66;1787418;79;21945;-69
2021/10/24 07:55:43;;;;;;;41.23;24.17;;;;;;;20.46;31.38;100911.22;1788899;79;21689;-70
2021/10/24 07:58:11;;;;;;;39.03;24.23;;;;;;;20.40;31.49;100916.91;1787870;79;21676;-69
2021/10/24 08:00:38;;;;;;;34.83;21.20;;;;;;;20.38;31.48;100920.32;1772239;80;21639;-68
2021/10/24 08:03:08;;;;;;;37.87;21.70;;;;;;;20.49;32.08;100912.08;1782787;79;21424;-67
2021/10/24 08:05:35;;;;;;;30.83;19.63;;;;;;;20.51;31.60;100913.19;1784899;80;21603;-68
2021/10/24 08:08:02;;;;;;;29.17;16.10;;;;;;;20.73;31.67;100914.71;1780687;79;21662;-67
2021/10/24 08:10:29;;;;;;;26.30;14.27;;;;;;;20.82;31.47;100906.67;1787695;79;22003;-65
2021/10/24 08:12:55;;;;;;;24.00;15.07;;;;;;;21.00;31.17;100915.78;1778680;79;21647;-69
2021/10/24 08:15:22;;;;;;;21.43;13.57;;;;;;;21.06;31.31;100913.52;1734451;80;21665;-67
2021/10/24 08:17:50;;;;;;;22.43;12.63;;;;;;;21.16;31.59;100912.89;1733404;82;21839;-68
2021/10/24 08:20:35;;;;;;;20.50;12.50;;;;;;;21.24;31.66;100914.36;1769217;79;22152;-67
2021/10/24 08:23:03;;;;;;;18.10;11.07;;;;;;;21.76;31.21;100908.91;1738563;80;20975;-72
2021/10/24 08:25:29;;;;;;;15.17;11.40;;;;;;;21.96;30.70;100910.55;1773170;80;21057;-67
2021/10/24 08:27:59;;;;;;;19.13;11.83;;;;;;;22.28;29.94;100899.38;1772095;80;21008;-72
2021/10/24 08:30:43;;;;;;;22.90;12.87;;;;;;;22.37;29.76;100901.87;1769958;80;21564;-69
2021/10/24 08:33:17;;;;;;;23.93;14.50;;;;;;;22.68;29.20;100895.61;1773520;79;21147;-68
2021/10/24 08:35:44;;;;;;;28.10;15.30;;;;;;;22.28;29.26;100896.72;1772314;79;21083;-67
2021/10/24 08:38:13;;;;;;;28.73;16.77;;;;;;;22.09;29.63;100896.95;1736213;81;20967;-67
2021/10/24 08:40:42;;;;;;;24.67;14.83;;;;;;;22.09;29.50;100886.33;1739337;82;21506;-69
2021/10/24 08:43:18;;;;;;;25.13;13.80;;;;;;;21.95;29.54;100884.26;1764065;80;20928;-66
2021/10/24 08:45:43;;;;;;;22.70;14.10;;;;;;;22.00;29.58;100877.16;1778329;79;21801;-67
2021/10/24 08:48:10;;;;;;;20.00;12.53;;;;;;;22.24;29.57;100873.02;1783376;80;20913;-66
2021/10/24 08:50:36;;;;;;;22.07;12.33;;;;;;;22.57;29.00;100869.44;1769483;79;20957;-68
2021/10/24 08:53:07;;;;;;;18.20;11.03;;;;;;;22.73;28.93;100865.09;1761075;80;21186;-68
2021/10/24 08:55:36;;;;;;;18.35;12.05;;;;;;;22.89;28.76;100872.73;1762806;80;21122;-69
2021/10/24 08:58:03;;;;;;;26.37;14.43;;;;;;;22.95;28.41;100865.10;1763210;79;22215;-67
2021/10/24 09:00:30;;;;;;;19.73;13.73;;;;;;;22.89;28.47;100868.22;1763063;79;21079;-68
2021/10/24 09:03:01;;;;;;;19.70;11.90;;;;;;;22.89;28.42;100872.73;1764223;80;20997;-67
2021/10/24 09:05:42;;;;;;;16.42;10.23;;;;;;;22.78;28.59;100875.80;1767540;79;21141;-69
2021/10/24 09:08:20;;;;;;;16.15;9.73;;;;;;;22.82;28.30;100877.71;1771244;79;20984;-67
2021/10/24 09:10:59;;;;;;;16.83;9.40;;;;;;;22.74;28.29;100874.70;1772619;79;21171;-67
2021/10/24 09:13:32;;;;;;;17.43;9.20;;;;;;;22.66;28.46;100870.63;1765804;79;20956;-67
2021/10/24 09:16:02;;;;;;;16.73;9.77;;;;;;;22.84;28.50;100874.79;1766516;80;21900;-67
2021/10/24 09:18:40;;;;;;;13.50;8.28;;;;;;;22.92;28.07;100871.74;1725025;81;21062;-69
2021/10/24 09:21:23;;;;;;;16.83;8.00;;;;;;;23.05;28.29;100875.85;1733910;81;21113;-68
2021/10/24 09:24:10;;;;;;;13.53;6.77;;;;;;;23.38;27.23;100866.06;1726916;81;21794;-66
2021/10/24 09:26:35;;;;;;;6.50;3.47;;;;;;;23.52;26.10;100852.08;1728646;81;22227;-65
2021/10/24 09:29:07;;;;;;;6.40;2.60;;;;;;;23.61;24.86;100850.27;1725747;81;21611;-66
2021/10/24 09:31:36;;;;;;;3.10;1.40;;;;;;;23.81;24.69;100852.30;1773075;79;20991;-67
2021/10/24 09:34:21;;;;;;;5.47;1.30;;;;;;;23.73;24.05;100846.39;1769314;79;21078;-68
2021/10/24 09:36:57;;;;;;;5.83;1.90;;;;;;;24.31;23.90;100841.11;1771123;79;21175;-69
2021/10/24 09:39:37;;;;;;;5.33;2.67;;;;;;;24.55;23.20;100844.69;1772047;79;21531;-67
2021/10/24 09:42:19;;;;;;;6.83;2.87;;;;;;;24.25;22.53;100831.52;1772431;79;21055;-68
2021/10/24 09:45:09;;;;;;;6.90;2.40;;;;;;;24.31;22.51;100829.13;1774605;79;21223;-66
2021/10/24 09:47:38;;;;;;;5.63;1.80;;;;;;;24.14;22.50;100818.67;1770539;79;21075;-65
2021/10/24 09:50:09;;;;;;;5.30;2.40;;;;;;;23.78;22.73;100819.00;1772803;79;21129;-66
2021/10/24 09:52:37;;;;;;;8.10;1.87;;;;;;;23.33;23.20;100832.75;1775644;79;21097;-66
2021/10/24 09:55:16;;;;;;;4.53;2.10;;;;;;;23.32;23.11;100841.26;1768554;79;21608;-67
2021/10/24 09:57:46;;;;;;;5.83;1.63;;;;;;;23.22;23.33;100842.48;1775901;79;21122;-69
2021/10/24 10:00:13;;;;;;;5.10;1.73;;;;;;;23.29;23.36;100854.52;1770853;79;21533;-66
2021/10/24 10:02:41;;;;;;;3.50;1.60;;;;;;;23.36;23.15;100860.17;1751954;79;21218;-68
2021/10/24 10:05:08;;;;;;;3.40;1.63;;;;;;;23.27;23.24;100863.83;1767053;79;21121;-70
2021/10/24 10:07:36;;;;;;;4.07;1.50;;;;;;;23.28;23.02;100854.79;1770957;79;21082;-67
2021/10/24 10:10:03;;;;;;;5.00;1.80;;;;;;;23.36;23.08;100859.64;1776120;79;21073;-68
2021/10/24 10:12:33;;;;;;;4.63;2.10;;;;;;;23.17;23.30;100858.41;1769141;79;22437;-69
2021/10/24 10:15:01;;;;;;;6.83;1.95;;;;;;;22.99;23.05;100852.38;1768270;80;21024;-65
2021/10/24 10:17:29;;;;;;;6.83;1.77;;;;;;;22.96;23.02;100852.11;1765412;80;20897;-66
2021/10/24 10:19:57;;;;;;;5.33;1.70;;;;;;;22.76;22.97;100851.31;1765819;80;21506;-66
2021/10/24 10:22:31;;;;;;;4.80;2.07;;;;;;;22.92;22.70;100842.50;1760973;79;21115;-67
2021/10/24 10:25:04;;;;;;;3.47;1.47;;;;;;;22.76;22.82;100838.03;1770906;80;21107;-66
2021/10/24 10:27:40;;;;;;;5.20;1.67;;;;;;;22.85;23.43;100842.39;1767038;79;21127;-66
2021/10/24 10:30:09;;;;;;;4.37;1.70;;;;;;;22.67;23.54;100838.20;1788223;79;20996;-66
2021/10/24 10:32:51;;;;;;;7.33;2.07;;;;;;;22.80;23.28;100835.14;1780134;79;21075;-67
2021/10/24 10:35:22;;;;;;;2.75;1.40;;;;;;;23.19;22.96;100831.05;1777031;79;21467;-66
2021/10/24 10:37:58;;;;;;;6.03;1.40;;;;;;;23.05;22.72;100832.78;1774121;79;21021;-66
2021/10/24 10:40:38;;;;;;;5.23;1.93;;;;;;;22.71;23.13;100831.34;1784182;79;21136;-68
2021/10/24 10:43:21;;;;;;;3.95;1.25;;;;;;;23.23;22.29;100821.51;1782174;79;20913;-67
2021/10/24 10:45:55;;;;;;;5.40;2.33;;;;;;;23.20;21.67;100829.45;1774649;79;22385;-66
2021/10/24 10:48:41;;;;;;;9.33;2.27;;;;;;;22.77;21.86;100825.04;1769522;79;21262;-66
2021/10/24 10:51:24;;;;;;;5.13;1.80;;;;;;;22.61;22.24;100819.27;1776683;79;21422;-67
2021/10/24 10:54:05;;;;;;;4.63;1.37;;;;;;;23.08;21.94;100812.87;1783429;80;21174;-67
2021/10/24 10:56:44;;;;;;;4.60;1.83;;;;;;;23.20;21.85;100818.02;1783722;79;20963;-72
2021/10/24 10:59:15;;;;;;;4.30;1.90;;;;;;;23.30;21.71;100812.80;1780514;79;20881;-74
2021/10/24 11:01:42;;;;;;;4.83;1.87;;;;;;;23.27;21.68;100808.77;1783136;79;22146;-66
2021/10/24 11:04:16;;;;;;;5.30;1.87;;;;;;;23.44;21.58;100809.95;1790574;79;20917;-66
2021/10/24 11:06:49;;;;;;;5.83;1.70;;;;;;;23.67;21.65;100810.67;1791366;79;22361;-72
2021/10/24 11:09:41;;;;;;;4.77;1.90;;;;;;;23.88;21.73;100801.76;1782053;79;20940;-69
2021/10/24 11:12:36;;;;;;;5.03;1.80;;;;;;;24.09;21.55;100799.19;1780911;79;21015;-68
2021/10/24 11:15:14;;;;;;;4.40;1.80;;;;;;;24.54;21.30;100793.25;1785197;79;21067;-65
2021/10/24 11:17:43;;;;;;;4.57;2.03;;;;;;;24.90;21.06;100784.00;1789150;79;21014;-67
2021/10/24 11:20:20;;;;;;;3.70;1.40;;;;;;;25.10;20.74;100788.56;1790732;79;21795;-66
2021/10/24 11:22:57;;;;;;;4.60;1.77;;;;;;;25.07;20.33;100788.52;1787732;80;20964;-67
2021/10/24 11:25:32;;;;;;;4.33;1.33;;;;;;;24.82;20.55;100779.20;1786767;80;22057;-67
2021/10/24 11:28:12;;;;;;;2.73;0.97;;;;;;;24.69;20.30;100779.16;1775989;80;20965;-66